createdAt,value
2018-07-27T00:02:28.234Z,6.03
2018-07-27T00:04:56.250Z,7.57
2018-07-27T00:07:25.008Z,5.87
2018-07-27T00:09:53.332Z,6.30
2018-07-27T00:12:21.761Z,5.80
2018-07-27T00:14:49.884Z,5.57
2018-07-27T00:17:18.202Z,5.93
2018-07-27T00:19:46.360Z,5.87
2018-07-27T00:22:14.583Z,6.50
2018-07-27T00:24:43.707Z,5.73
2018-07-27T00:27:12.082Z,6.13
2018-07-27T00:29:40.175Z,6.47
2018-07-27T00:32:09.222Z,6.50
2018-07-27T00:34:37.401Z,6.43
2018-07-27T00:37:05.643Z,6.70
2018-07-27T00:39:33.687Z,7.20
2018-07-27T00:42:01.995Z,6.40
2018-07-27T00:44:30.153Z,6.80
2018-07-27T00:46:58.321Z,6.03
2018-07-27T00:49:26.550Z,6.20
2018-07-27T00:51:56.326Z,5.70
2018-07-27T00:54:24.966Z,7.37
2018-07-27T00:56:53.315Z,7.37
2018-07-27T00:59:22.188Z,6.00
2018-07-27T01:01:50.535Z,6.43
2018-07-27T01:04:18.731Z,6.20
2018-07-27T01:06:46.891Z,6.63
2018-07-27T01:09:15.762Z,7.50
2018-07-27T01:11:43.961Z,5.87
2018-07-27T01:14:15.179Z,6.47
2018-07-27T01:16:43.619Z,7.97
2018-07-27T01:19:12.912Z,6.33
2018-07-27T01:21:41.139Z,6.60
2018-07-27T01:24:09.425Z,5.53
2018-07-27T01:26:37.603Z,6.33
2018-07-27T01:29:06.447Z,6.23
2018-07-27T01:31:34.700Z,5.60
2018-07-27T01:34:02.976Z,5.60
2018-07-27T01:36:31.223Z,6.17
2018-07-27T01:38:59.501Z,6.63
2018-07-27T01:41:27.636Z,6.43
2018-07-27T01:43:56.486Z,5.90
2018-07-27T01:46:25.310Z,5.80
2018-07-27T01:48:54.864Z,6.33
2018-07-27T01:51:23.066Z,7.90
2018-07-27T01:53:51.406Z,5.83
2018-07-27T01:56:19.584Z,5.60
2018-07-27T01:58:48.274Z,7.70
2018-07-27T02:01:17.183Z,6.00
2018-07-27T02:03:46.346Z,6.57
2018-07-27T02:06:14.739Z,7.10
2018-07-27T02:08:43.329Z,6.40
2018-07-27T02:11:11.661Z,7.67
2018-07-27T02:13:40.020Z,7.53
2018-07-27T02:16:08.060Z,6.43
2018-07-27T02:18:36.370Z,6.70
2018-07-27T02:21:05.080Z,6.30
2018-07-27T02:23:33.215Z,6.00
2018-07-27T02:26:01.537Z,7.77
2018-07-27T02:28:29.725Z,6.03
2018-07-27T02:30:58.169Z,7.17
2018-07-27T02:33:26.285Z,7.20
2018-07-27T02:35:55.127Z,6.43
2018-07-27T02:38:23.244Z,6.70
2018-07-27T02:40:52.092Z,6.60
2018-07-27T02:43:21.511Z,6.87
2018-07-27T02:45:49.737Z,6.97
2018-07-27T02:48:17.911Z,6.43
2018-07-27T02:50:46.138Z,7.33
2018-07-27T02:53:15.069Z,6.37
2018-07-27T02:55:43.367Z,6.73
2018-07-27T02:58:12.349Z,6.30
2018-07-27T03:00:41.103Z,5.77
2018-07-27T03:03:09.514Z,6.27
2018-07-27T03:05:38.389Z,6.40
2018-07-27T03:08:06.651Z,6.43
2018-07-27T03:10:35.039Z,6.37
2018-07-27T03:13:03.293Z,7.80
2018-07-27T03:15:32.702Z,5.70
2018-07-27T03:18:01.036Z,7.20
2018-07-27T03:20:30.083Z,6.90
2018-07-27T03:22:59.178Z,6.60
2018-07-27T03:25:27.665Z,7.27
2018-07-27T03:27:55.982Z,7.77
2018-07-27T03:30:24.293Z,6.20
2018-07-27T03:32:52.387Z,6.53
2018-07-27T03:35:20.686Z,6.23
2018-07-27T03:37:48.902Z,6.53
2018-07-27T03:40:18.042Z,6.53
2018-07-27T03:42:46.272Z,7.87
2018-07-27T03:45:15.721Z,6.33
2018-07-27T03:47:44.015Z,6.40
2018-07-27T03:50:12.886Z,6.30
2018-07-27T03:52:41.996Z,5.93
2018-07-27T03:55:11.016Z,8.27
2018-07-27T03:57:40.187Z,6.93
2018-07-27T04:00:11.037Z,6.83
2018-07-27T04:02:39.180Z,5.93
2018-07-27T04:05:07.537Z,5.77
2018-07-27T04:07:36.856Z,6.30
2018-07-27T04:10:05.913Z,6.77
2018-07-27T04:12:34.061Z,7.47
2018-07-27T04:15:02.472Z,7.07
2018-07-27T04:17:30.667Z,7.10
2018-07-27T04:19:59.878Z,7.23
2018-07-27T04:22:28.396Z,6.30
2018-07-27T04:24:56.613Z,6.67
2018-07-27T04:27:24.969Z,6.67
2018-07-27T04:29:53.210Z,6.43
2018-07-27T04:32:21.945Z,6.47
2018-07-27T04:34:50.179Z,8.00
2018-07-27T04:37:18.410Z,6.97
2018-07-27T04:39:46.896Z,5.40
2018-07-27T04:42:15.703Z,8.53
2018-07-27T04:44:43.981Z,6.00
2018-07-27T04:47:13.199Z,7.60
2018-07-27T04:49:41.637Z,8.57
2018-07-27T04:52:09.971Z,8.57
2018-07-27T04:54:38.165Z,6.40
2018-07-27T04:57:09.029Z,6.87
2018-07-27T04:59:37.228Z,8.10
2018-07-27T05:02:06.581Z,7.00
2018-07-27T05:04:35.432Z,6.47
2018-07-27T05:07:03.868Z,7.20
2018-07-27T05:09:32.175Z,7.60
2018-07-27T05:12:00.415Z,7.80
2018-07-27T05:14:29.243Z,9.23
2018-07-27T05:16:57.957Z,7.10
2018-07-27T05:19:26.438Z,7.93
2018-07-27T05:21:54.634Z,8.80
2018-07-27T05:24:22.785Z,7.53
2018-07-27T05:26:51.514Z,9.63
2018-07-27T05:29:20.610Z,6.67
2018-07-27T05:31:48.945Z,6.87
2018-07-27T05:35:27.466Z,7.27
2018-07-27T05:37:55.969Z,8.47
2018-07-27T05:40:24.325Z,7.97
2018-07-27T05:42:52.652Z,7.70
2018-07-27T05:45:20.857Z,9.30
2018-07-27T05:47:49.240Z,7.60
2018-07-27T05:50:17.434Z,6.37
2018-07-27T05:52:45.839Z,7.40
2018-07-27T05:55:14.370Z,10.73
2018-07-27T05:57:42.600Z,10.27
2018-07-27T06:00:11.043Z,10.93
2018-07-27T06:02:39.463Z,11.27
2018-07-27T06:05:07.802Z,8.93
2018-07-27T06:07:36.378Z,7.27
2018-07-27T06:10:05.768Z,8.80
2018-07-27T06:12:33.942Z,8.87
2018-07-27T06:15:02.161Z,6.80
2018-07-27T06:17:31.096Z,10.50
2018-07-27T06:19:59.329Z,11.40
2018-07-27T06:22:27.611Z,7.20
2018-07-27T06:24:55.888Z,8.38
2018-07-27T06:27:24.319Z,7.40
2018-07-27T06:29:52.552Z,8.13
2018-07-27T06:32:20.872Z,6.72
2018-07-27T06:34:49.324Z,6.70
2018-07-27T06:37:17.451Z,9.03
2018-07-27T06:39:46.080Z,9.53
2018-07-27T06:42:15.017Z,8.53
2018-07-27T06:44:43.966Z,7.80
2018-07-27T06:47:12.905Z,7.47
2018-07-27T06:49:40.955Z,7.03
2018-07-27T06:52:09.197Z,7.00
2018-07-27T06:54:37.481Z,6.87
2018-07-27T06:57:05.712Z,8.00
2018-07-27T06:59:33.936Z,9.60
2018-07-27T07:02:02.124Z,6.42
2018-07-27T07:04:30.390Z,7.20
2018-07-27T07:06:58.752Z,7.00
2018-07-27T07:09:26.941Z,6.45
2018-07-27T07:11:55.951Z,6.60
2018-07-27T07:14:25.009Z,7.47
2018-07-27T07:16:53.217Z,6.47
2018-07-27T07:19:21.370Z,7.15
2018-07-27T07:21:49.489Z,7.28
2018-07-27T07:24:17.872Z,7.08
2018-07-27T07:26:46.063Z,7.45
2018-07-27T07:29:14.090Z,7.00
2018-07-27T07:31:42.343Z,6.25
2018-07-27T07:34:10.851Z,5.95
2018-07-27T07:36:38.984Z,7.40
2018-07-27T07:39:10.006Z,7.80
2018-07-27T07:41:38.977Z,7.53
2018-07-27T07:44:07.977Z,7.33
2018-07-27T07:46:37.365Z,9.45
2018-07-27T07:49:06.475Z,6.72
2018-07-27T07:51:35.971Z,8.00
2018-07-27T07:54:04.471Z,7.65
2018-07-27T07:56:34.531Z,7.37
2018-07-27T07:59:03.049Z,7.97
2018-07-27T08:01:31.739Z,8.65
2018-07-27T08:04:00.031Z,7.87
2018-07-27T08:06:28.374Z,7.78
2018-07-27T08:08:56.593Z,7.35
2018-07-27T08:11:25.068Z,6.40
2018-07-27T08:13:53.247Z,7.58
2018-07-27T08:16:21.372Z,6.40
2018-07-27T08:18:49.771Z,6.35
2018-07-27T08:21:24.149Z,6.50
2018-07-27T08:23:53.109Z,6.12
2018-07-27T08:26:46.139Z,6.83
2018-07-27T08:29:16.115Z,5.25
2018-07-27T08:31:45.220Z,6.60
2018-07-27T08:34:14.415Z,5.47
2018-07-27T08:36:43.436Z,6.47
2018-07-27T08:39:14.584Z,6.95
2018-07-27T08:41:43.389Z,7.50
2018-07-27T08:44:13.187Z,6.25
2018-07-27T08:46:41.952Z,5.50
2018-07-27T08:49:11.236Z,5.50
2018-07-27T08:51:39.490Z,6.03
2018-07-27T08:54:08.326Z,6.35
2018-07-27T08:56:37.136Z,6.37
2018-07-27T08:59:07.750Z,5.85
2018-07-27T09:01:37.570Z,6.28
2018-07-27T09:04:06.353Z,5.83
2018-07-27T09:06:35.224Z,4.85
2018-07-27T09:09:08.483Z,4.70
2018-07-27T09:11:37.100Z,4.67
2018-07-27T09:14:05.522Z,4.83
2018-07-27T09:16:34.545Z,4.72
2018-07-27T09:19:02.787Z,4.67
2018-07-27T09:21:30.924Z,4.37
2018-07-27T09:23:59.323Z,3.90
2018-07-27T09:26:27.559Z,4.90
2018-07-27T09:28:55.943Z,3.80
2018-07-27T09:31:24.262Z,4.30
2018-07-27T09:33:53.353Z,4.12
2018-07-27T09:36:22.366Z,4.12
2018-07-27T09:38:50.717Z,4.17
2018-07-27T09:41:22.677Z,4.62
2018-07-27T09:43:51.059Z,4.33
2018-07-27T09:46:19.265Z,3.80
2018-07-27T09:48:50.888Z,3.42
2018-07-27T09:51:20.306Z,4.10
2018-07-27T09:53:48.988Z,3.95
2018-07-27T09:56:17.284Z,3.90
2018-07-27T09:58:45.561Z,4.67
2018-07-27T10:01:19.676Z,4.03
2018-07-27T10:03:49.877Z,4.00
2018-07-27T10:06:18.345Z,4.30
2018-07-27T10:08:46.555Z,4.15
2018-07-27T10:11:15.019Z,4.47
2018-07-27T10:13:43.146Z,3.72
2018-07-27T10:16:11.183Z,4.75
2018-07-27T10:18:39.481Z,4.22
2018-07-27T10:21:08.835Z,3.87
2018-07-27T10:23:37.118Z,3.98
2018-07-27T10:26:05.607Z,3.87
2018-07-27T10:28:33.750Z,3.83
2018-07-27T10:31:02.069Z,3.22
2018-07-27T10:33:30.175Z,3.25
2018-07-27T10:35:58.361Z,3.40
2018-07-27T10:38:26.439Z,3.10
2018-07-27T10:40:54.663Z,3.00
2018-07-27T10:43:22.915Z,3.87
2018-07-27T10:45:51.103Z,3.20
2018-07-27T10:48:19.277Z,3.15
2018-07-27T10:50:47.579Z,2.58
2018-07-27T10:53:15.935Z,3.70
2018-07-27T10:55:44.278Z,3.40
2018-07-27T10:58:12.555Z,3.05
2018-07-27T11:00:41.854Z,3.20
2018-07-27T11:03:10.760Z,3.02
2018-07-27T11:05:39.068Z,2.87
2018-07-27T11:08:07.383Z,3.10
2018-07-27T11:10:35.735Z,3.87
2018-07-27T11:13:04.577Z,4.00
2018-07-27T11:15:32.831Z,3.72
2018-07-27T11:18:01.183Z,3.90
2018-07-27T11:20:30.395Z,3.52
2018-07-27T11:22:59.230Z,4.17
2018-07-27T11:25:27.775Z,4.28
2018-07-27T11:27:56.172Z,4.22
2018-07-27T11:30:24.480Z,4.35
2018-07-27T11:32:52.832Z,4.80
2018-07-27T11:35:22.011Z,3.72
2018-07-27T11:37:50.600Z,4.92
2018-07-27T11:40:18.876Z,5.83
2018-07-27T11:42:47.180Z,5.58
2018-07-27T11:45:15.302Z,7.03
2018-07-27T11:47:45.049Z,6.53
2018-07-27T11:50:13.202Z,6.35
2018-07-27T11:52:41.374Z,6.80
2018-07-27T11:55:09.542Z,5.80
2018-07-27T11:57:37.878Z,5.80
2018-07-27T12:00:06.138Z,6.00
2018-07-27T12:02:34.338Z,6.17
2018-07-27T12:05:03.414Z,5.50
2018-07-27T12:07:31.617Z,5.75
2018-07-27T12:09:59.944Z,5.50
2018-07-27T12:12:29.284Z,5.85
2018-07-27T12:14:57.821Z,6.40
2018-07-27T12:17:27.868Z,6.33
2018-07-27T12:19:56.657Z,5.95
2018-07-27T12:22:26.011Z,5.28
2018-07-27T12:24:54.268Z,5.90
2018-07-27T12:27:24.544Z,5.85
2018-07-27T12:29:52.736Z,5.62
2018-07-27T12:32:22.728Z,4.55
2018-07-27T12:34:53.461Z,4.72
2018-07-27T12:37:23.049Z,4.97
2018-07-27T12:39:51.922Z,4.10
2018-07-27T12:42:20.985Z,3.22
2018-07-27T12:44:50.991Z,3.22
2018-07-27T12:47:21.069Z,4.10
2018-07-27T12:49:51.155Z,3.85
2018-07-27T12:52:21.706Z,4.08
2018-07-27T12:54:51.210Z,3.62
2018-07-27T12:57:21.058Z,3.42
2018-07-27T12:59:50.117Z,2.75
2018-07-27T13:02:20.039Z,3.12
2018-07-27T13:04:50.330Z,3.37
2018-07-27T13:07:18.538Z,3.02
2018-07-27T13:09:48.022Z,3.60
2018-07-27T13:12:17.118Z,3.00
2018-07-27T13:14:46.385Z,3.90
2018-07-27T13:17:15.768Z,3.17
2018-07-27T13:19:46.564Z,3.52
2018-07-27T13:22:14.823Z,3.45
2018-07-27T13:27:13.177Z,3.67
2018-07-27T13:29:41.600Z,3.65
2018-07-27T13:32:11.191Z,3.50
2018-07-27T13:34:41.493Z,3.75
2018-07-27T13:37:11.196Z,3.87
2018-07-27T13:39:41.898Z,3.33
2018-07-27T13:42:12.643Z,3.62
2018-07-27T13:44:42.098Z,4.12
2018-07-27T13:47:12.496Z,4.20
2018-07-27T13:49:40.903Z,4.05
2018-07-27T13:52:12.870Z,3.75
2018-07-27T13:54:42.874Z,3.98
2018-07-27T13:57:12.804Z,4.28
2018-07-27T13:59:42.855Z,3.72
2018-07-27T14:02:12.380Z,3.77
2018-07-27T14:04:40.516Z,4.55
2018-07-27T14:07:10.357Z,5.00
2018-07-27T14:09:38.523Z,4.67
2018-07-27T14:12:06.787Z,7.55
2018-07-27T14:14:35.134Z,5.50
2018-07-27T14:17:03.577Z,5.67
2018-07-27T14:19:31.881Z,4.50
2018-07-27T14:22:00.370Z,5.50
2018-07-27T14:24:28.665Z,6.20
2018-07-27T14:26:56.720Z,6.00
2018-07-27T14:29:24.814Z,5.95
2018-07-27T14:31:52.844Z,5.45
2018-07-27T14:34:21.239Z,5.33
2018-07-27T14:36:49.579Z,5.40
2018-07-27T14:39:17.863Z,5.45
2018-07-27T14:41:46.043Z,5.72
2018-07-27T14:44:14.348Z,5.62
2018-07-27T14:46:42.529Z,5.67
2018-07-27T14:49:12.294Z,5.55
2018-07-27T14:51:41.610Z,5.15
2018-07-27T14:54:10.980Z,5.25
2018-07-27T14:56:39.890Z,5.28
2018-07-27T14:59:08.759Z,5.80
2018-07-27T15:01:37.460Z,5.62
2018-07-27T15:04:06.045Z,4.83
2018-07-27T15:06:34.713Z,4.85
2018-07-27T15:09:05.131Z,5.35
2018-07-27T15:11:33.322Z,6.22
2018-07-27T15:14:01.644Z,6.53
2018-07-27T15:16:30.443Z,6.30
2018-07-27T15:18:58.529Z,7.00
2018-07-27T15:21:26.777Z,7.00
2018-07-27T15:23:55.064Z,7.40
2018-07-27T15:26:23.273Z,7.37
2018-07-27T15:28:51.384Z,6.93
2018-07-27T15:31:19.484Z,6.80
2018-07-27T15:33:47.688Z,7.50
2018-07-27T15:36:15.917Z,6.90
2018-07-27T15:38:44.610Z,6.80
2018-07-27T15:41:12.798Z,7.33
2018-07-27T15:43:40.854Z,6.60
2018-07-27T15:46:10.196Z,5.33
2018-07-27T15:48:38.859Z,5.33
2018-07-27T15:51:09.583Z,5.27
2018-07-27T15:53:37.693Z,4.70
2018-07-27T15:56:06.003Z,4.50
2018-07-27T15:58:35.019Z,4.87
2018-07-27T16:01:03.122Z,4.40
2018-07-27T16:03:31.197Z,4.57
2018-07-27T16:05:59.916Z,5.00
2018-07-27T16:08:36.624Z,5.30
2018-07-27T16:11:04.840Z,4.03
2018-07-27T16:13:35.005Z,4.70
2018-07-27T16:16:08.341Z,4.37
2018-07-27T16:18:36.722Z,4.07
2018-07-27T16:21:07.454Z,4.40
2018-07-27T16:23:39.209Z,4.23
2018-07-27T16:26:08.026Z,6.00
2018-07-27T16:28:36.842Z,5.90
2018-07-27T16:31:05.222Z,5.87
2018-07-27T16:33:57.829Z,4.37
2018-07-27T16:36:50.932Z,5.23
2018-07-27T16:53:30.909Z,4.70
2018-07-27T19:22:58.789Z,8.67
2018-07-27T19:25:29.626Z,7.90
2018-07-27T19:30:53.002Z,6.80
2018-07-27T19:33:24.554Z,7.10
2018-07-27T19:36:06.190Z,7.10
2018-07-27T19:38:39.210Z,9.10
2018-07-27T19:45:02.810Z,6.70
2018-07-27T19:47:48.608Z,7.73
2018-07-27T19:51:04.281Z,10.30
2018-07-27T19:53:45.195Z,9.47
2018-07-27T20:03:44.941Z,7.83
2018-07-27T20:06:29.772Z,8.37
2018-07-27T20:09:07.296Z,8.67
2018-07-27T20:12:01.939Z,8.67
2018-07-27T20:14:47.270Z,8.17
2018-07-27T20:17:16.010Z,8.70
2018-07-27T20:19:47.830Z,8.30
2018-07-27T20:30:54.521Z,8.80
2018-07-27T20:33:58.872Z,8.50
2018-07-27T20:48:04.969Z,7.20
2018-07-27T20:56:35.040Z,12.73
2018-07-27T21:02:30.045Z,11.03
2018-07-27T21:05:28.596Z,9.77
2018-07-27T21:19:40.075Z,13.07
2018-07-27T21:23:14.018Z,12.73
2018-07-27T21:25:53.059Z,10.33
2018-07-27T21:28:28.892Z,11.30
2018-07-27T21:31:11.230Z,10.37
2018-07-27T21:33:58.956Z,11.23
2018-07-27T21:36:34.179Z,11.30
2018-07-27T21:39:15.506Z,9.97
2018-07-27T21:41:51.742Z,14.00
2018-07-27T21:44:29.774Z,12.77
2018-07-27T21:47:08.108Z,11.27
2018-07-27T21:49:42.226Z,9.37
2018-07-27T21:52:19.319Z,8.07
2018-07-27T21:57:45.124Z,11.40
2018-07-27T22:00:13.628Z,10.13
2018-07-27T22:02:49.247Z,9.77
2018-07-27T22:05:19.894Z,10.37
2018-07-27T22:07:58.060Z,9.67
2018-07-27T22:10:38.119Z,11.40
2018-07-27T22:13:50.791Z,9.57
2018-07-27T22:16:23.889Z,12.13
2018-07-27T22:18:58.239Z,11.67
2018-07-27T22:21:30.215Z,9.80
2018-07-27T22:24:02.337Z,10.70
2018-07-27T22:26:51.804Z,12.17
2018-07-27T22:29:21.507Z,10.60
2018-07-27T22:31:57.081Z,11.60
2018-07-27T22:34:35.895Z,11.13
2018-07-27T22:37:13.499Z,11.47
2018-07-27T22:39:43.391Z,11.83
2018-07-27T22:42:12.091Z,10.57
2018-07-27T22:44:51.363Z,9.77
2018-07-27T22:47:41.478Z,11.43
2018-07-27T22:50:13.182Z,11.73
2018-07-27T22:52:44.375Z,11.40
2018-07-27T22:55:27.553Z,10.77
2018-07-27T22:58:09.507Z,12.00
2018-07-27T23:00:38.893Z,12.47
2018-07-27T23:03:18.393Z,11.00
2018-07-27T23:05:48.103Z,11.50
2018-07-27T23:08:23.959Z,11.40
2018-07-27T23:10:52.400Z,12.37
2018-07-27T23:13:22.191Z,11.63
2018-07-27T23:15:52.644Z,12.43
2018-07-27T23:18:54.935Z,11.07
2018-07-27T23:21:29.545Z,13.10
2018-07-27T23:24:08.505Z,10.67
2018-07-27T23:26:38.319Z,12.50
2018-07-27T23:29:11.790Z,11.47
2018-07-27T23:31:48.108Z,11.23
2018-07-27T23:34:19.010Z,10.70
2018-07-27T23:37:07.886Z,14.20
2018-07-27T23:39:56.063Z,11.43
2018-07-27T23:42:32.859Z,13.40
2018-07-27T23:47:49.793Z,13.43
2018-07-27T23:50:23.536Z,11.67
2018-07-27T23:52:54.544Z,10.93
2018-07-27T23:55:27.498Z,11.23
2018-07-27T23:57:58.608Z,12.67
